sensor_id;sensor_type;location;lat;lon;timestamp;P1;durP1;ratioP1;P2;durP2;ratioP2
7247;SDS011;3665;51.034;13.642;2022-09-03T00:15:16;1.13;;;0.93;;
7247;SDS011;3665;51.034;13.642;2022-09-03T00:26:52;1.37;;;1.10;;
7247;SDS011;3665;51.034;13.642;2022-09-03T00:32:48;1.40;;;1.30;;
7247;SDS011;3665;51.034;13.642;2022-09-03T00:49:59;3.63;;;1.20;;
7247;SDS011;3665;51.034;13.642;2022-09-03T00:54:52;1.17;;;1.07;;
7247;SDS011;3665;51.034;13.642;2022-09-03T01:00:03;1.37;;;1.23;;
7247;SDS011;3665;51.034;13.642;2022-09-03T02:02:12;2.17;;;1.30;;
7247;SDS011;3665;51.034;13.642;2022-09-03T02:14:20;3.70;;;1.47;;
7247;SDS011;3665;51.034;13.642;2022-09-03T02:26:40;2.80;;;1.57;;
7247;SDS011;3665;51.034;13.642;2022-09-03T02:31:42;2.27;;;1.30;;
7247;SDS011;3665;51.034;13.642;2022-09-03T02:38:43;1.70;;;1.47;;
7247;SDS011;3665;51.034;13.642;2022-09-03T03:26:37;1.93;;;1.70;;
7247;SDS011;3665;51.034;13.642;2022-09-03T03:31:33;3.03;;;1.83;;
7247;SDS011;3665;51.034;13.642;2022-09-03T03:38:11;2.10;;;1.90;;
7247;SDS011;3665;51.034;13.642;2022-09-03T04:23:11;2.47;;;1.93;;
7247;SDS011;3665;51.034;13.642;2022-09-03T04:53:06;1.70;;;1.60;;
7247;SDS011;3665;51.034;13.642;2022-09-03T05:05:58;2.17;;;1.97;;
7247;SDS011;3665;51.034;13.642;2022-09-03T05:11:11;1.97;;;1.70;;
7247;SDS011;3665;51.034;13.642;2022-09-03T05:16:29;1.50;;;1.40;;
7247;SDS011;3665;51.034;13.642;2022-09-03T06:02:27;2.90;;;1.30;;
7247;SDS011;3665;51.034;13.642;2022-09-03T06:08:18;3.13;;;1.27;;
7247;SDS011;3665;51.034;13.642;2022-09-03T06:14:36;1.33;;;1.00;;
7247;SDS011;3665;51.034;13.642;2022-09-03T06:19:32;1.87;;;1.30;;
7247;SDS011;3665;51.034;13.642;2022-09-03T06:25:58;3.83;;;1.10;;
7247;SDS011;3665;51.034;13.642;2022-09-03T06:38:28;1.43;;;1.13;;
7247;SDS011;3665;51.034;13.642;2022-09-03T07:03:29;2.03;;;1.30;;
7247;SDS011;3665;51.034;13.642;2022-09-03T07:21:26;6.87;;;5.43;;
7247;SDS011;3665;51.034;13.642;2022-09-03T07:32:18;2.27;;;1.47;;
7247;SDS011;3665;51.034;13.642;2022-09-03T09:44:48;3.95;;;3.10;;
7247;SDS011;3665;51.034;13.642;2022-09-03T10:57:58;2.88;;;1.25;;
7247;SDS011;3665;51.034;13.642;2022-09-03T15:12:34;1.85;;;1.20;;
7247;SDS011;3665;51.034;13.642;2022-09-03T15:28:34;1.63;;;1.27;;
7247;SDS011;3665;51.034;13.642;2022-09-03T15:34:00;2.05;;;1.42;;
7247;SDS011;3665;51.034;13.642;2022-09-03T15:39:21;1.42;;;1.25;;
7247;SDS011;3665;51.034;13.642;2022-09-03T15:44:55;1.33;;;1.05;;
7247;SDS011;3665;51.034;13.642;2022-09-03T15:50:15;4.10;;;1.90;;
7247;SDS011;3665;51.034;13.642;2022-09-03T15:55:47;1.38;;;1.27;;
7247;SDS011;3665;51.034;13.642;2022-09-03T16:01:24;1.38;;;1.08;;
7247;SDS011;3665;51.034;13.642;2022-09-03T16:23:38;2.08;;;1.90;;
7247;SDS011;3665;51.034;13.642;2022-09-03T16:34:47;2.67;;;1.70;;
7247;SDS011;3665;51.034;13.642;2022-09-03T16:39:50;1.70;;;1.60;;
7247;SDS011;3665;51.034;13.642;2022-09-03T16:45:23;3.20;;;1.43;;
7247;SDS011;3665;51.034;13.642;2022-09-03T16:50:29;2.23;;;1.30;;
7247;SDS011;3665;51.034;13.642;2022-09-03T17:01:10;4.03;;;1.87;;
7247;SDS011;3665;51.034;13.642;2022-09-03T17:06:28;2.00;;;1.88;;
7247;SDS011;3665;51.034;13.642;2022-09-03T17:11:50;2.67;;;2.17;;
7247;SDS011;3665;51.034;13.642;2022-09-03T17:16:57;1.20;;;1.10;;
7247;SDS011;3665;51.034;13.642;2022-09-03T17:21:59;5.77;;;5.27;;
7247;SDS011;3665;51.034;13.642;2022-09-03T17:32:44;2.33;;;1.30;;
7247;SDS011;3665;51.034;13.642;2022-09-03T17:37:55;1.73;;;1.63;;
7247;SDS011;3665;51.034;13.642;2022-09-03T17:42:59;2.70;;;1.97;;
7247;SDS011;3665;51.034;13.642;2022-09-03T17:48:08;1.67;;;1.57;;
7247;SDS011;3665;51.034;13.642;2022-09-03T17:53:43;3.17;;;1.90;;
7247;SDS011;3665;51.034;13.642;2022-09-03T17:59:02;2.40;;;2.20;;
7247;SDS011;3665;51.034;13.642;2022-09-03T18:09:39;2.57;;;2.20;;
7247;SDS011;3665;51.034;13.642;2022-09-03T18:14:45;2.23;;;2.03;;
7247;SDS011;3665;51.034;13.642;2022-09-03T18:19:48;2.90;;;2.20;;
7247;SDS011;3665;51.034;13.642;2022-09-03T18:25:05;5.57;;;2.30;;
7247;SDS011;3665;51.034;13.642;2022-09-03T18:30:32;2.50;;;2.20;;
7247;SDS011;3665;51.034;13.642;2022-09-03T18:36:04;4.03;;;3.10;;
7247;SDS011;3665;51.034;13.642;2022-09-03T18:41:10;4.20;;;3.27;;
7247;SDS011;3665;51.034;13.642;2022-09-03T18:46:40;5.50;;;4.60;;
7247;SDS011;3665;51.034;13.642;2022-09-03T18:52:37;4.87;;;3.80;;
7247;SDS011;3665;51.034;13.642;2022-09-03T19:03:51;6.47;;;4.87;;
7247;SDS011;3665;51.034;13.642;2022-09-03T19:09:10;5.47;;;4.90;;
7247;SDS011;3665;51.034;13.642;2022-09-03T19:14:28;5.23;;;4.00;;
7247;SDS011;3665;51.034;13.642;2022-09-03T19:19:54;5.70;;;3.23;;
7247;SDS011;3665;51.034;13.642;2022-09-03T19:25:23;4.87;;;3.23;;
7247;SDS011;3665;51.034;13.642;2022-09-03T19:30:31;4.20;;;3.30;;
7247;SDS011;3665;51.034;13.642;2022-09-03T19:35:48;5.00;;;3.90;;
7247;SDS011;3665;51.034;13.642;2022-09-03T19:46:44;7.87;;;5.67;;
7247;SDS011;3665;51.034;13.642;2022-09-03T19:52:02;7.67;;;5.13;;
7247;SDS011;3665;51.034;13.642;2022-09-03T19:57:24;6.03;;;4.27;;
7247;SDS011;3665;51.034;13.642;2022-09-03T20:02:42;6.20;;;4.00;;
7247;SDS011;3665;51.034;13.642;2022-09-03T20:07:56;7.57;;;5.03;;
7247;SDS011;3665;51.034;13.642;2022-09-03T20:24:22;4.37;;;3.40;;
7247;SDS011;3665;51.034;13.642;2022-09-03T20:29:26;3.70;;;3.23;;
7247;SDS011;3665;51.034;13.642;2022-09-03T20:34:30;4.30;;;3.90;;
7247;SDS011;3665;51.034;13.642;2022-09-03T20:39:31;4.27;;;3.80;;
7247;SDS011;3665;51.034;13.642;2022-09-03T20:44:51;4.33;;;3.90;;
7247;SDS011;3665;51.034;13.642;2022-09-03T20:49:56;4.90;;;4.33;;
7247;SDS011;3665;51.034;13.642;2022-09-03T20:55:04;6.73;;;4.10;;
7247;SDS011;3665;51.034;13.642;2022-09-03T21:00:06;4.70;;;4.00;;
7247;SDS011;3665;51.034;13.642;2022-09-03T21:05:08;5.30;;;4.70;;
7247;SDS011;3665;51.034;13.642;2022-09-03T21:10:28;5.13;;;4.63;;
7247;SDS011;3665;51.034;13.642;2022-09-03T21:15:33;7.33;;;5.03;;
7247;SDS011;3665;51.034;13.642;2022-09-03T21:21:22;5.47;;;4.80;;
7247;SDS011;3665;51.034;13.642;2022-09-03T21:26:32;4.60;;;3.93;;
7247;SDS011;3665;51.034;13.642;2022-09-03T21:31:35;5.07;;;4.37;;
7247;SDS011;3665;51.034;13.642;2022-09-03T21:36:49;4.93;;;3.97;;
7247;SDS011;3665;51.034;13.642;2022-09-03T21:41:38;4.27;;;3.83;;
7247;SDS011;3665;51.034;13.642;2022-09-03T21:46:48;7.23;;;4.33;;
7247;SDS011;3665;51.034;13.642;2022-09-03T21:51:46;4.47;;;4.07;;
7247;SDS011;3665;51.034;13.642;2022-09-03T21:57:12;4.60;;;4.10;;
7247;SDS011;3665;51.034;13.642;2022-09-03T22:02:29;4.63;;;3.70;;
7247;SDS011;3665;51.034;13.642;2022-09-03T22:07:37;4.37;;;3.60;;
7247;SDS011;3665;51.034;13.642;2022-09-03T22:18:17;3.80;;;3.50;;
7247;SDS011;3665;51.034;13.642;2022-09-03T22:23:33;4.10;;;3.70;;
7247;SDS011;3665;51.034;13.642;2022-09-03T22:28:44;3.93;;;3.53;;
7247;SDS011;3665;51.034;13.642;2022-09-03T22:34:15;3.80;;;3.50;;
7247;SDS011;3665;51.034;13.642;2022-09-03T22:39:45;4.83;;;3.40;;
7247;SDS011;3665;51.034;13.642;2022-09-03T22:44:39;4.23;;;3.60;;
7247;SDS011;3665;51.034;13.642;2022-09-03T22:49:56;3.60;;;3.30;;
7247;SDS011;3665;51.034;13.642;2022-09-03T22:55:20;3.93;;;3.07;;
7247;SDS011;3665;51.034;13.642;2022-09-03T23:06:13;5.00;;;3.43;;
7247;SDS011;3665;51.034;13.642;2022-09-03T23:11:17;4.93;;;3.63;;
7247;SDS011;3665;51.034;13.642;2022-09-03T23:22:32;4.97;;;3.50;;
7247;SDS011;3665;51.034;13.642;2022-09-03T23:28:04;3.87;;;3.30;;
7247;SDS011;3665;51.034;13.642;2022-09-03T23:33:11;3.77;;;3.13;;
7247;SDS011;3665;51.034;13.642;2022-09-03T23:38:05;3.53;;;3.10;;
7247;SDS011;3665;51.034;13.642;2022-09-03T23:48:59;4.53;;;3.93;;
7247;SDS011;3665;51.034;13.642;2022-09-03T23:54:21;4.83;;;3.27;;
